createdAt,value
2022-08-04T00:04:03.938Z,60.70
2022-08-04T00:09:24.167Z,60.40
2022-08-04T00:14:34.099Z,60.50
2022-08-04T00:19:44.744Z,60.30
2022-08-04T00:24:48.069Z,60.70
2022-08-04T00:29:53.134Z,60.90
2022-08-04T00:34:58.828Z,61.40
2022-08-04T00:40:03.374Z,62.10
2022-08-04T00:45:24.308Z,62.60
2022-08-04T00:50:30.057Z,63.50
2022-08-04T00:55:57.719Z,64.60
2022-08-04T01:01:14.272Z,64.70
2022-08-04T01:06:35.226Z,65.20
2022-08-04T01:11:56.420Z,65.80
2022-08-04T01:17:25.373Z,66.50
2022-08-04T01:22:34.378Z,67.40
2022-08-04T01:28:15.521Z,67.90
2022-08-04T01:33:24.260Z,68.60
2022-08-04T01:38:34.676Z,68.80
2022-08-04T01:43:43.873Z,69.60
2022-08-04T01:48:53.880Z,70.10
2022-08-04T01:53:57.399Z,70.40
2022-08-04T01:59:02.916Z,70.60
2022-08-04T02:04:18.861Z,71.00
2022-08-04T02:10:10.118Z,71.40
2022-08-04T02:16:09.685Z,71.80
2022-08-04T02:21:16.829Z,72.00
2022-08-04T02:26:24.313Z,71.90
2022-08-04T02:31:51.352Z,72.20
2022-08-04T02:36:56.244Z,72.40
2022-08-04T02:42:00.166Z,72.50
2022-08-04T02:47:04.622Z,72.70
2022-08-04T02:52:10.555Z,72.90
2022-08-04T02:57:17.590Z,73.20
2022-08-04T03:02:35.140Z,73.60
2022-08-04T03:08:15.456Z,74.00
2022-08-04T03:13:48.556Z,74.30
2022-08-04T03:19:38.862Z,74.70
2022-08-04T03:25:35.288Z,75.90
2022-08-04T03:31:47.306Z,75.70
2022-08-04T03:37:25.909Z,76.00
2022-08-04T03:43:58.977Z,76.30
2022-08-04T03:48:59.259Z,76.60
2022-08-04T03:54:32.087Z,77.00
2022-08-04T03:59:55.917Z,77.40
2022-08-04T04:05:16.420Z,77.90
2022-08-04T04:10:38.245Z,78.40
2022-08-04T04:16:08.977Z,78.70
2022-08-04T04:21:46.508Z,79.10
2022-08-04T04:27:19.690Z,79.60
2022-08-04T04:32:54.236Z,79.90
2022-08-04T04:38:33.228Z,80.20
2022-08-04T04:44:07.685Z,80.50
2022-08-04T04:49:40.969Z,80.50
2022-08-04T04:55:02.482Z,80.70
2022-08-04T05:00:13.352Z,80.80
2022-08-04T05:05:40.037Z,80.90
2022-08-04T05:10:51.891Z,81.30
2022-08-04T05:16:24.829Z,81.60
2022-08-04T05:21:39.776Z,81.60
2022-08-04T05:26:50.250Z,81.40
2022-08-04T05:31:56.308Z,81.00
2022-08-04T05:37:16.386Z,79.70
2022-08-04T05:42:19.751Z,78.30
2022-08-04T05:47:28.171Z,78.10
2022-08-04T05:52:32.550Z,76.70
2022-08-04T05:57:38.854Z,74.70
2022-08-04T06:02:44.930Z,73.20
2022-08-04T06:08:11.796Z,71.90
2022-08-04T06:13:48.608Z,70.60
2022-08-04T06:20:03.633Z,68.40
2022-08-04T06:24:07.376Z,68.00
2022-08-04T06:29:20.640Z,66.10
2022-08-04T06:34:24.294Z,65.60
2022-08-04T06:39:29.417Z,64.80
2022-08-04T06:44:34.441Z,63.20
2022-08-04T06:49:44.111Z,62.10
2022-08-04T06:55:07.229Z,61.20
2022-08-04T07:00:14.462Z,60.20
2022-08-04T07:05:20.063Z,60.00
2022-08-04T07:10:24.845Z,59.40
2022-08-04T07:15:28.409Z,59.40
2022-08-04T07:20:36.214Z,59.30
2022-08-04T07:26:00.793Z,58.50
2022-08-04T07:31:05.346Z,58.40
2022-08-04T07:36:11.477Z,58.00
2022-08-04T07:41:38.747Z,57.90
2022-08-04T07:46:43.182Z,57.80
2022-08-04T07:51:46.605Z,58.00
2022-08-04T07:56:51.793Z,58.10
2022-08-04T08:01:59.068Z,57.00
2022-08-04T08:07:02.047Z,56.10
2022-08-04T08:12:37.424Z,56.10
2022-08-04T08:17:30.104Z,55.90
2022-08-04T08:22:33.200Z,55.80
2022-08-04T08:27:38.206Z,56.00
2022-08-04T08:32:41.285Z,56.00
2022-08-04T08:37:58.559Z,55.90
2022-08-04T08:44:06.441Z,54.80
2022-08-04T08:50:01.582Z,53.30
2022-08-04T08:55:21.437Z,52.00
2022-08-04T09:00:55.167Z,51.50
2022-08-04T09:06:29.507Z,51.10
2022-08-04T09:12:10.054Z,50.70
2022-08-04T09:17:55.490Z,49.90
2022-08-04T09:23:19.456Z,49.50
2022-08-04T09:28:52.794Z,48.10
2022-08-04T09:34:27.346Z,48.40
2022-08-04T09:39:52.165Z,48.10
2022-08-04T09:45:26.603Z,47.80
2022-08-04T09:50:50.260Z,47.80
2022-08-04T09:56:32.455Z,47.40
2022-08-04T10:01:38.594Z,47.10
2022-08-04T10:07:12.334Z,46.90
2022-08-04T10:12:24.235Z,46.40
2022-08-04T10:17:55.071Z,46.00
2022-08-04T10:23:19.390Z,45.80
2022-08-04T10:28:23.471Z,46.50
2022-08-04T10:33:49.536Z,45.60
2022-08-04T10:39:43.519Z,45.50
2022-08-04T10:45:19.294Z,45.20
2022-08-04T10:50:26.689Z,44.50
2022-08-04T10:56:06.724Z,44.60
2022-08-04T11:02:01.438Z,44.50
2022-08-04T11:06:54.127Z,45.10
2022-08-04T11:12:23.656Z,44.40
2022-08-04T11:17:35.482Z,43.70
2022-08-04T11:22:50.332Z,43.70
2022-08-04T11:28:11.378Z,43.00
2022-08-04T11:33:54.548Z,43.40
2022-08-04T11:39:08.066Z,43.00
2022-08-04T11:44:23.186Z,42.90
2022-08-04T11:49:56.781Z,43.10
2022-08-04T11:55:07.367Z,42.70
2022-08-04T12:00:14.600Z,42.80
2022-08-04T12:05:36.693Z,42.70
2022-08-04T12:11:09.081Z,42.30
2022-08-04T12:16:30.790Z,41.80
2022-08-04T12:21:53.233Z,41.50
2022-08-04T12:27:20.388Z,42.20
2022-08-04T12:33:18.052Z,41.20
2022-08-04T12:38:23.627Z,40.10
2022-08-04T12:43:39.492Z,39.60
2022-08-04T12:48:47.161Z,40.10
2022-08-04T12:53:51.679Z,39.80
2022-08-04T12:59:12.994Z,39.40
2022-08-04T13:04:20.199Z,39.10
2022-08-04T13:09:26.701Z,39.30
2022-08-04T13:14:37.762Z,39.20
2022-08-04T13:19:56.344Z,39.50
2022-08-04T13:26:41.390Z,39.90
2022-08-04T13:30:25.835Z,39.40
2022-08-04T13:35:54.732Z,39.30
2022-08-04T13:40:57.875Z,39.40
2022-08-04T13:46:06.464Z,39.70
2022-08-04T13:51:12.342Z,39.50
2022-08-04T13:56:16.893Z,40.00
2022-08-04T14:01:35.993Z,40.20
2022-08-04T14:07:06.905Z,39.60
2022-08-04T14:12:38.823Z,39.60
2022-08-04T14:17:47.139Z,39.40
2022-08-04T14:22:49.965Z,39.30
2022-08-04T14:27:57.540Z,39.30
2022-08-04T14:34:02.084Z,38.90
2022-08-04T14:38:42.454Z,39.20
2022-08-04T14:44:03.734Z,39.50
2022-08-04T14:49:13.118Z,39.80
2022-08-04T14:54:18.855Z,39.60
2022-08-04T14:59:22.486Z,39.50
2022-08-04T15:04:26.251Z,39.10
2022-08-04T15:09:29.742Z,38.90
2022-08-04T15:14:37.482Z,38.60
2022-08-04T15:19:41.302Z,38.40
2022-08-04T15:24:58.908Z,38.50
2022-08-04T15:30:08.691Z,38.20
2022-08-04T15:35:22.135Z,38.50
2022-08-04T15:40:55.983Z,38.70
2022-08-04T15:46:43.869Z,38.40
2022-08-04T15:51:32.118Z,38.40
2022-08-04T15:56:35.858Z,38.40
2022-08-04T16:01:38.769Z,38.40
2022-08-04T16:06:43.663Z,38.20
2022-08-04T16:11:46.615Z,38.10
2022-08-04T16:16:50.375Z,38.10
2022-08-04T16:21:57.692Z,38.10
2022-08-04T16:27:06.471Z,38.40
2022-08-04T16:32:25.342Z,38.50
2022-08-04T16:37:40.690Z,38.30
2022-08-04T16:42:45.119Z,38.70
2022-08-04T16:47:47.835Z,38.70
2022-08-04T16:52:55.723Z,39.00
2022-08-04T16:58:01.387Z,39.00
2022-08-04T17:03:10.323Z,39.10
2022-08-04T17:08:30.558Z,39.30
2022-08-04T17:14:04.337Z,39.70
2022-08-04T17:19:25.051Z,40.20
2022-08-04T17:24:29.554Z,40.80
2022-08-04T17:29:43.109Z,41.40
2022-08-04T17:34:55.042Z,41.90
2022-08-04T17:40:22.448Z,42.00
2022-08-04T17:50:51.113Z,44.40
2022-08-04T17:55:56.943Z,45.20
2022-08-04T18:01:22.995Z,46.10
2022-08-04T18:06:25.540Z,46.30
2022-08-04T18:11:41.903Z,46.70
2022-08-04T18:16:45.692Z,47.30
2022-08-04T18:21:59.492Z,47.80
2022-08-04T18:27:06.573Z,47.80
2022-08-04T18:32:10.500Z,47.70
2022-08-04T18:38:03.313Z,48.20
2022-08-04T18:42:38.602Z,48.40
2022-08-04T18:47:54.368Z,48.90
2022-08-04T18:53:01.694Z,50.10
2022-08-04T18:58:11.654Z,50.70
2022-08-04T19:03:22.018Z,51.00
2022-08-04T19:08:33.194Z,51.50
2022-08-04T19:13:38.134Z,51.90
2022-08-04T19:18:41.266Z,52.00
2022-08-04T19:24:11.074Z,53.10
2022-08-04T19:29:08.451Z,52.90
2022-08-04T19:34:11.583Z,53.30
2022-08-04T19:39:14.575Z,53.50
2022-08-04T19:44:19.084Z,53.40
2022-08-04T19:50:04.462Z,53.60
2022-08-04T19:54:49.381Z,54.10
2022-08-04T19:59:54.875Z,54.70
2022-08-04T20:04:58.211Z,55.30
2022-08-04T20:10:04.425Z,55.50
2022-08-04T20:15:08.458Z,56.00
2022-08-04T20:20:15.387Z,56.40
2022-08-04T20:25:37.602Z,56.50
2022-08-04T20:30:42.497Z,56.70
2022-08-04T20:36:00.731Z,57.10
2022-08-04T20:41:08.403Z,57.40
2022-08-04T20:46:18.698Z,57.90
2022-08-04T20:51:33.343Z,58.20
2022-08-04T20:56:50.499Z,58.60
2022-08-04T21:01:54.245Z,59.10
2022-08-04T21:07:08.335Z,59.60
2022-08-04T21:12:27.604Z,59.80
2022-08-04T21:17:56.956Z,60.10
2022-08-04T21:22:59.943Z,60.50
2022-08-04T21:28:05.227Z,60.90
2022-08-04T21:33:08.268Z,61.20
2022-08-04T21:38:16.204Z,61.40
2022-08-04T21:43:19.829Z,61.60
2022-08-04T21:48:27.485Z,62.10
2022-08-04T21:53:30.604Z,62.50
2022-08-04T21:58:33.343Z,62.90
2022-08-04T22:03:52.968Z,63.00
2022-08-04T22:09:00.137Z,63.10
2022-08-04T22:14:11.065Z,63.30
2022-08-04T22:19:14.200Z,63.40
2022-08-04T22:24:26.112Z,63.30
2022-08-04T22:29:32.843Z,63.20
2022-08-04T22:34:39.415Z,63.20
2022-08-04T22:39:56.121Z,63.40
2022-08-04T22:44:59.400Z,63.50
2022-08-04T22:50:26.992Z,63.50
2022-08-04T22:55:27.036Z,64.10
2022-08-04T23:00:53.043Z,64.40
2022-08-04T23:06:11.089Z,64.80
2022-08-04T23:11:14.998Z,65.30
2022-08-04T23:16:19.149Z,65.40
2022-08-04T23:21:24.708Z,65.40
2022-08-04T23:26:28.454Z,65.50
2022-08-04T23:31:41.137Z,65.50
2022-08-04T23:36:44.569Z,65.90
2022-08-04T23:41:53.386Z,65.80
2022-08-04T23:47:03.813Z,66.00
2022-08-04T23:52:07.457Z,66.40
2022-08-04T23:57:19.864Z,66.60
